sensor_id;sensor_type;location;lat;lon;timestamp;temperature;humidity
11242;DHT22;5678;52.370;9.006;2023-05-10T00:02:15;14.90;99.90
11242;DHT22;5678;52.370;9.006;2023-05-10T00:04:43;14.90;99.90
11242;DHT22;5678;52.370;9.006;2023-05-10T00:07:12;14.90;99.90
11242;DHT22;5678;52.370;9.006;2023-05-10T00:09:40;14.90;99.90
11242;DHT22;5678;52.370;9.006;2023-05-10T00:12:08;14.80;99.90
11242;DHT22;5678;52.370;9.006;2023-05-10T00:14:35;14.90;99.90
11242;DHT22;5678;52.370;9.006;2023-05-10T00:17:03;14.80;99.90
11242;DHT22;5678;52.370;9.006;2023-05-10T00:19:31;14.90;99.90
11242;DHT22;5678;52.370;9.006;2023-05-10T00:21:59;14.80;99.90
11242;DHT22;5678;52.370;9.006;2023-05-10T00:24:29;14.80;99.90
11242;DHT22;5678;52.370;9.006;2023-05-10T00:26:57;15.00;99.90
11242;DHT22;5678;52.370;9.006;2023-05-10T00:29:25;14.80;99.90
11242;DHT22;5678;52.370;9.006;2023-05-10T00:31:54;14.80;99.90
11242;DHT22;5678;52.370;9.006;2023-05-10T00:34:22;14.80;99.90
11242;DHT22;5678;52.370;9.006;2023-05-10T00:36:51;14.80;99.90
11242;DHT22;5678;52.370;9.006;2023-05-10T00:39:19;14.80;99.90
11242;DHT22;5678;52.370;9.006;2023-05-10T00:41:48;14.80;99.90
11242;DHT22;5678;52.370;9.006;2023-05-10T00:44:16;14.80;99.90
11242;DHT22;5678;52.370;9.006;2023-05-10T00:46:45;14.80;99.90
11242;DHT22;5678;52.370;9.006;2023-05-10T00:49:13;14.80;99.90
11242;DHT22;5678;52.370;9.006;2023-05-10T00:51:41;14.70;99.90
11242;DHT22;5678;52.370;9.006;2023-05-10T00:54:10;14.90;99.90
11242;DHT22;5678;52.370;9.006;2023-05-10T00:56:39;14.70;99.90
11242;DHT22;5678;52.370;9.006;2023-05-10T00:59:09;14.60;99.90
11242;DHT22;5678;52.370;9.006;2023-05-10T01:01:37;14.60;99.90
11242;DHT22;5678;52.370;9.006;2023-05-10T01:04:05;14.60;99.90
11242;DHT22;5678;52.370;9.006;2023-05-10T01:06:33;14.50;99.90
11242;DHT22;5678;52.370;9.006;2023-05-10T01:09:01;14.50;99.90
11242;DHT22;5678;52.370;9.006;2023-05-10T01:11:29;14.50;99.90
11242;DHT22;5678;52.370;9.006;2023-05-10T01:13:57;14.50;99.90
11242;DHT22;5678;52.370;9.006;2023-05-10T01:16:27;14.50;99.90
11242;DHT22;5678;52.370;9.006;2023-05-10T01:18:57;14.50;99.90
11242;DHT22;5678;52.370;9.006;2023-05-10T01:21:30;14.50;99.90
11242;DHT22;5678;52.370;9.006;2023-05-10T01:24:21;14.50;99.90
11242;DHT22;5678;52.370;9.006;2023-05-10T01:27:08;14.30;99.90
11242;DHT22;5678;52.370;9.006;2023-05-10T01:32:55;14.50;99.90
11242;DHT22;5678;52.370;9.006;2023-05-10T01:35:31;14.60;99.90
11242;DHT22;5678;52.370;9.006;2023-05-10T01:38:09;14.40;99.90
11242;DHT22;5678;52.370;9.006;2023-05-10T01:40:42;14.40;99.90
11242;DHT22;5678;52.370;9.006;2023-05-10T01:43:19;14.40;99.90
11242;DHT22;5678;52.370;9.006;2023-05-10T01:45:58;14.40;99.90
11242;DHT22;5678;52.370;9.006;2023-05-10T01:48:29;14.30;99.90
11242;DHT22;5678;52.370;9.006;2023-05-10T01:50:58;14.30;99.90
11242;DHT22;5678;52.370;9.006;2023-05-10T01:53:27;14.30;99.90
11242;DHT22;5678;52.370;9.006;2023-05-10T01:55:56;14.30;99.90
11242;DHT22;5678;52.370;9.006;2023-05-10T01:58:28;14.30;99.90
11242;DHT22;5678;52.370;9.006;2023-05-10T02:00:58;14.20;99.90
11242;DHT22;5678;52.370;9.006;2023-05-10T02:03:30;14.30;99.90
11242;DHT22;5678;52.370;9.006;2023-05-10T02:05:59;14.20;99.90
11242;DHT22;5678;52.370;9.006;2023-05-10T02:08:27;14.20;99.90
11242;DHT22;5678;52.370;9.006;2023-05-10T02:10:56;14.20;99.90
11242;DHT22;5678;52.370;9.006;2023-05-10T02:13:25;14.20;99.90
11242;DHT22;5678;52.370;9.006;2023-05-10T02:15:55;14.20;99.90
11242;DHT22;5678;52.370;9.006;2023-05-10T02:18:25;14.20;99.90
11242;DHT22;5678;52.370;9.006;2023-05-10T02:20:56;14.40;99.90
11242;DHT22;5678;52.370;9.006;2023-05-10T02:23:26;14.10;99.90
11242;DHT22;5678;52.370;9.006;2023-05-10T02:25:54;14.10;99.90
11242;DHT22;5678;52.370;9.006;2023-05-10T02:28:24;14.10;99.90
11242;DHT22;5678;52.370;9.006;2023-05-10T02:30:54;14.10;99.90
11242;DHT22;5678;52.370;9.006;2023-05-10T02:33:23;14.00;99.90
11242;DHT22;5678;52.370;9.006;2023-05-10T02:35:52;14.00;99.90
11242;DHT22;5678;52.370;9.006;2023-05-10T02:38:22;14.00;99.90
11242;DHT22;5678;52.370;9.006;2023-05-10T02:40:52;14.00;99.90
11242;DHT22;5678;52.370;9.006;2023-05-10T02:43:23;14.00;99.90
11242;DHT22;5678;52.370;9.006;2023-05-10T02:45:52;14.00;99.90
11242;DHT22;5678;52.370;9.006;2023-05-10T02:48:20;13.90;99.90
11242;DHT22;5678;52.370;9.006;2023-05-10T02:50:50;13.90;99.90
11242;DHT22;5678;52.370;9.006;2023-05-10T02:53:23;13.90;99.90
11242;DHT22;5678;52.370;9.006;2023-05-10T02:56:01;13.80;99.90
11242;DHT22;5678;52.370;9.006;2023-05-10T02:58:30;13.80;99.90
11242;DHT22;5678;52.370;9.006;2023-05-10T03:00:59;13.80;99.90
11242;DHT22;5678;52.370;9.006;2023-05-10T03:03:27;13.70;99.90
11242;DHT22;5678;52.370;9.006;2023-05-10T03:05:54;13.70;99.90
11242;DHT22;5678;52.370;9.006;2023-05-10T03:08:25;13.70;99.90
11242;DHT22;5678;52.370;9.006;2023-05-10T03:11:07;13.70;99.90
11242;DHT22;5678;52.370;9.006;2023-05-10T03:13:44;13.70;99.90
11242;DHT22;5678;52.370;9.006;2023-05-10T03:16:21;13.70;99.90
11242;DHT22;5678;52.370;9.006;2023-05-10T03:18:56;13.70;99.90
11242;DHT22;5678;52.370;9.006;2023-05-10T03:21:29;13.70;99.90
11242;DHT22;5678;52.370;9.006;2023-05-10T03:24:06;13.70;99.90
11242;DHT22;5678;52.370;9.006;2023-05-10T03:26:35;13.70;99.90
11242;DHT22;5678;52.370;9.006;2023-05-10T03:29:05;13.70;99.90
11242;DHT22;5678;52.370;9.006;2023-05-10T03:31:34;13.70;99.90
11242;DHT22;5678;52.370;9.006;2023-05-10T03:34:02;13.70;99.90
11242;DHT22;5678;52.370;9.006;2023-05-10T03:36:30;13.70;99.90
11242;DHT22;5678;52.370;9.006;2023-05-10T03:38:58;13.70;99.90
11242;DHT22;5678;52.370;9.006;2023-05-10T03:41:27;13.80;99.90
11242;DHT22;5678;52.370;9.006;2023-05-10T03:43:55;13.60;99.90
11242;DHT22;5678;52.370;9.006;2023-05-10T03:46:23;13.70;99.90
11242;DHT22;5678;52.370;9.006;2023-05-10T03:48:50;13.70;99.90
11242;DHT22;5678;52.370;9.006;2023-05-10T03:51:18;14.00;99.90
11242;DHT22;5678;52.370;9.006;2023-05-10T03:53:46;13.70;99.90
11242;DHT22;5678;52.370;9.006;2023-05-10T03:56:14;14.30;99.90
11242;DHT22;5678;52.370;9.006;2023-05-10T03:58:43;13.60;99.90
11242;DHT22;5678;52.370;9.006;2023-05-10T04:01:11;13.60;99.90
11242;DHT22;5678;52.370;9.006;2023-05-10T04:03:39;13.60;99.90
11242;DHT22;5678;52.370;9.006;2023-05-10T04:06:07;13.60;99.90
11242;DHT22;5678;52.370;9.006;2023-05-10T04:08:38;13.60;99.90
11242;DHT22;5678;52.370;9.006;2023-05-10T04:11:06;13.60;99.90
11242;DHT22;5678;52.370;9.006;2023-05-10T04:13:35;13.50;99.90
11242;DHT22;5678;52.370;9.006;2023-05-10T04:16:05;13.50;99.90
11242;DHT22;5678;52.370;9.006;2023-05-10T04:18:33;13.50;99.90
11242;DHT22;5678;52.370;9.006;2023-05-10T04:21:01;13.60;99.90
11242;DHT22;5678;52.370;9.006;2023-05-10T04:23:29;13.50;99.90
11242;DHT22;5678;52.370;9.006;2023-05-10T04:26:00;13.50;99.90
11242;DHT22;5678;52.370;9.006;2023-05-10T04:28:28;13.50;99.90
11242;DHT22;5678;52.370;9.006;2023-05-10T04:31:01;13.50;99.90
11242;DHT22;5678;52.370;9.006;2023-05-10T04:33:30;13.50;99.90
11242;DHT22;5678;52.370;9.006;2023-05-10T04:35:59;13.60;99.90
11242;DHT22;5678;52.370;9.006;2023-05-10T04:38:27;13.50;99.90
11242;DHT22;5678;52.370;9.006;2023-05-10T04:41:03;13.60;99.90
11242;DHT22;5678;52.370;9.006;2023-05-10T04:43:31;13.60;99.90
11242;DHT22;5678;52.370;9.006;2023-05-10T04:45:59;13.60;99.90
11242;DHT22;5678;52.370;9.006;2023-05-10T04:48:27;13.60;99.90
11242;DHT22;5678;52.370;9.006;2023-05-10T04:50:56;13.60;99.90
11242;DHT22;5678;52.370;9.006;2023-05-10T04:53:24;13.60;99.90
11242;DHT22;5678;52.370;9.006;2023-05-10T04:55:52;13.60;99.90
11242;DHT22;5678;52.370;9.006;2023-05-10T04:58:20;13.60;99.90
11242;DHT22;5678;52.370;9.006;2023-05-10T05:00:48;13.60;99.90
11242;DHT22;5678;52.370;9.006;2023-05-10T05:03:16;13.60;99.90
11242;DHT22;5678;52.370;9.006;2023-05-10T05:05:44;13.60;99.90
11242;DHT22;5678;52.370;9.006;2023-05-10T05:08:14;13.60;99.90
11242;DHT22;5678;52.370;9.006;2023-05-10T05:10:42;13.70;99.90
11242;DHT22;5678;52.370;9.006;2023-05-10T05:13:10;13.70;99.90
11242;DHT22;5678;52.370;9.006;2023-05-10T05:15:40;13.70;99.90
11242;DHT22;5678;52.370;9.006;2023-05-10T05:18:07;13.70;99.90
11242;DHT22;5678;52.370;9.006;2023-05-10T05:20:35;13.80;99.90
11242;DHT22;5678;52.370;9.006;2023-05-10T05:23:03;13.80;99.90
11242;DHT22;5678;52.370;9.006;2023-05-10T05:25:32;13.80;99.90
11242;DHT22;5678;52.370;9.006;2023-05-10T05:28:00;13.80;99.90
11242;DHT22;5678;52.370;9.006;2023-05-10T05:30:28;13.90;99.90
11242;DHT22;5678;52.370;9.006;2023-05-10T05:32:56;13.80;99.90
11242;DHT22;5678;52.370;9.006;2023-05-10T05:35:24;13.80;99.90
11242;DHT22;5678;52.370;9.006;2023-05-10T05:37:52;13.90;99.90
11242;DHT22;5678;52.370;9.006;2023-05-10T05:40:20;13.90;99.90
11242;DHT22;5678;52.370;9.006;2023-05-10T05:42:49;13.90;99.90
11242;DHT22;5678;52.370;9.006;2023-05-10T05:45:17;13.90;99.90
11242;DHT22;5678;52.370;9.006;2023-05-10T05:47:45;13.90;99.90
11242;DHT22;5678;52.370;9.006;2023-05-10T05:50:13;13.80;99.90
11242;DHT22;5678;52.370;9.006;2023-05-10T05:52:41;13.70;99.90
11242;DHT22;5678;52.370;9.006;2023-05-10T05:55:09;13.70;99.90
11242;DHT22;5678;52.370;9.006;2023-05-10T05:57:38;13.70;99.90
11242;DHT22;5678;52.370;9.006;2023-05-10T06:00:08;13.70;99.90
11242;DHT22;5678;52.370;9.006;2023-05-10T06:02:36;13.60;99.90
11242;DHT22;5678;52.370;9.006;2023-05-10T06:05:05;13.60;99.90
11242;DHT22;5678;52.370;9.006;2023-05-10T06:07:34;13.50;99.90
11242;DHT22;5678;52.370;9.006;2023-05-10T06:10:02;13.50;99.90
11242;DHT22;5678;52.370;9.006;2023-05-10T06:12:30;13.50;99.90
11242;DHT22;5678;52.370;9.006;2023-05-10T06:14:58;13.50;99.90
11242;DHT22;5678;52.370;9.006;2023-05-10T06:17:27;13.50;99.90
11242;DHT22;5678;52.370;9.006;2023-05-10T06:19:55;13.50;99.90
11242;DHT22;5678;52.370;9.006;2023-05-10T06:22:23;13.50;99.90
11242;DHT22;5678;52.370;9.006;2023-05-10T06:24:51;13.50;99.90
11242;DHT22;5678;52.370;9.006;2023-05-10T06:27:19;13.50;99.90
11242;DHT22;5678;52.370;9.006;2023-05-10T06:29:46;13.50;99.90
11242;DHT22;5678;52.370;9.006;2023-05-10T06:32:19;13.50;99.90
11242;DHT22;5678;52.370;9.006;2023-05-10T06:34:49;13.50;99.90
11242;DHT22;5678;52.370;9.006;2023-05-10T06:37:17;13.50;99.90
11242;DHT22;5678;52.370;9.006;2023-05-10T06:39:44;13.50;99.90
11242;DHT22;5678;52.370;9.006;2023-05-10T06:42:12;13.50;99.90
11242;DHT22;5678;52.370;9.006;2023-05-10T06:44:40;13.50;99.90
11242;DHT22;5678;52.370;9.006;2023-05-10T06:47:08;13.60;99.90
11242;DHT22;5678;52.370;9.006;2023-05-10T06:49:36;13.60;99.90
11242;DHT22;5678;52.370;9.006;2023-05-10T06:52:05;13.70;99.90
11242;DHT22;5678;52.370;9.006;2023-05-10T06:54:33;13.70;99.90
11242;DHT22;5678;52.370;9.006;2023-05-10T06:57:01;13.70;99.90
11242;DHT22;5678;52.370;9.006;2023-05-10T06:59:41;13.70;99.90
11242;DHT22;5678;52.370;9.006;2023-05-10T07:02:09;13.80;99.90
11242;DHT22;5678;52.370;9.006;2023-05-10T07:04:37;13.80;99.90
11242;DHT22;5678;52.370;9.006;2023-05-10T07:07:07;13.90;99.90
11242;DHT22;5678;52.370;9.006;2023-05-10T07:09:35;13.90;99.90
11242;DHT22;5678;52.370;9.006;2023-05-10T07:12:04;14.00;99.90
11242;DHT22;5678;52.370;9.006;2023-05-10T07:14:33;14.10;99.90
11242;DHT22;5678;52.370;9.006;2023-05-10T07:17:01;14.20;99.90
11242;DHT22;5678;52.370;9.006;2023-05-10T07:19:29;14.20;99.90
11242;DHT22;5678;52.370;9.006;2023-05-10T07:21:59;14.30;99.90
11242;DHT22;5678;52.370;9.006;2023-05-10T07:24:28;14.20;99.90
11242;DHT22;5678;52.370;9.006;2023-05-10T07:26:56;14.20;99.90
11242;DHT22;5678;52.370;9.006;2023-05-10T07:29:24;14.10;99.90
11242;DHT22;5678;52.370;9.006;2023-05-10T07:31:52;14.10;99.90
11242;DHT22;5678;52.370;9.006;2023-05-10T07:34:23;14.10;99.90
11242;DHT22;5678;52.370;9.006;2023-05-10T07:36:51;14.20;99.90
11242;DHT22;5678;52.370;9.006;2023-05-10T07:39:19;14.20;99.90
11242;DHT22;5678;52.370;9.006;2023-05-10T07:41:55;14.20;99.90
11242;DHT22;5678;52.370;9.006;2023-05-10T07:44:23;14.20;99.90
11242;DHT22;5678;52.370;9.006;2023-05-10T07:46:51;14.20;99.90
11242;DHT22;5678;52.370;9.006;2023-05-10T07:49:19;14.30;99.90
11242;DHT22;5678;52.370;9.006;2023-05-10T07:51:47;14.30;99.90
11242;DHT22;5678;52.370;9.006;2023-05-10T07:54:15;14.30;99.90
11242;DHT22;5678;52.370;9.006;2023-05-10T07:56:43;14.30;99.90
11242;DHT22;5678;52.370;9.006;2023-05-10T07:59:17;14.40;99.90
11242;DHT22;5678;52.370;9.006;2023-05-10T08:01:45;14.80;99.90
11242;DHT22;5678;52.370;9.006;2023-05-10T08:04:13;14.50;99.90
11242;DHT22;5678;52.370;9.006;2023-05-10T08:06:41;14.50;99.90
11242;DHT22;5678;52.370;9.006;2023-05-10T08:09:09;14.60;99.90
11242;DHT22;5678;52.370;9.006;2023-05-10T08:11:37;14.70;99.90
11242;DHT22;5678;52.370;9.006;2023-05-10T08:14:05;14.70;99.90
11242;DHT22;5678;52.370;9.006;2023-05-10T08:16:34;14.80;99.90
11242;DHT22;5678;52.370;9.006;2023-05-10T08:19:02;14.90;99.90
11242;DHT22;5678;52.370;9.006;2023-05-10T08:21:30;15.10;99.90
11242;DHT22;5678;52.370;9.006;2023-05-10T08:23:58;15.40;99.90
11242;DHT22;5678;52.370;9.006;2023-05-10T08:26:26;15.70;99.90
11242;DHT22;5678;52.370;9.006;2023-05-10T08:28:53;15.70;75.40
11242;DHT22;5678;52.370;9.006;2023-05-10T08:31:21;16.00;99.90
11242;DHT22;5678;52.370;9.006;2023-05-10T08:33:51;16.30;28.50
11242;DHT22;5678;52.370;9.006;2023-05-10T08:36:19;16.50;29.10
11242;DHT22;5678;52.370;9.006;2023-05-10T08:38:50;16.80;1.00
11242;DHT22;5678;52.370;9.006;2023-05-10T08:41:19;16.80;1.00
11242;DHT22;5678;52.370;9.006;2023-05-10T08:43:47;16.60;1.00
11242;DHT22;5678;52.370;9.006;2023-05-10T08:46:17;16.90;1.00
11242;DHT22;5678;52.370;9.006;2023-05-10T08:48:46;17.10;1.00
11242;DHT22;5678;52.370;9.006;2023-05-10T08:51:18;17.30;1.00
11242;DHT22;5678;52.370;9.006;2023-05-10T08:53:46;17.40;1.00
11242;DHT22;5678;52.370;9.006;2023-05-10T08:56:15;17.50;1.00
11242;DHT22;5678;52.370;9.006;2023-05-10T08:58:44;17.80;1.00
11242;DHT22;5678;52.370;9.006;2023-05-10T09:01:13;17.80;1.00
11242;DHT22;5678;52.370;9.006;2023-05-10T09:03:41;17.80;1.00
11242;DHT22;5678;52.370;9.006;2023-05-10T09:06:11;18.00;99.90
11242;DHT22;5678;52.370;9.006;2023-05-10T09:08:41;17.90;1.00
11242;DHT22;5678;52.370;9.006;2023-05-10T09:11:09;17.80;1.00
11242;DHT22;5678;52.370;9.006;2023-05-10T09:13:38;17.80;99.90
11242;DHT22;5678;52.370;9.006;2023-05-10T09:16:06;17.80;1.00
11242;DHT22;5678;52.370;9.006;2023-05-10T09:18:47;17.70;99.90
11242;DHT22;5678;52.370;9.006;2023-05-10T09:21:16;18.10;1.00
11242;DHT22;5678;52.370;9.006;2023-05-10T09:23:45;17.70;1.00
11242;DHT22;5678;52.370;9.006;2023-05-10T09:26:14;18.40;99.90
11242;DHT22;5678;52.370;9.006;2023-05-10T09:28:53;18.10;99.90
11242;DHT22;5678;52.370;9.006;2023-05-10T09:31:21;18.20;99.90
11242;DHT22;5678;52.370;9.006;2023-05-10T09:33:50;18.10;99.90
11242;DHT22;5678;52.370;9.006;2023-05-10T09:36:18;18.30;1.00
11242;DHT22;5678;52.370;9.006;2023-05-10T09:38:49;18.20;1.00
11242;DHT22;5678;52.370;9.006;2023-05-10T09:41:19;18.10;1.00
11242;DHT22;5678;52.370;9.006;2023-05-10T09:43:48;18.10;99.90
11242;DHT22;5678;52.370;9.006;2023-05-10T09:46:16;18.10;1.00
11242;DHT22;5678;52.370;9.006;2023-05-10T09:48:45;17.90;99.90
11242;DHT22;5678;52.370;9.006;2023-05-10T09:51:20;17.90;1.00
11242;DHT22;5678;52.370;9.006;2023-05-10T09:54:08;17.90;99.90
11242;DHT22;5678;52.370;9.006;2023-05-10T09:56:37;17.90;1.00
11242;DHT22;5678;52.370;9.006;2023-05-10T09:59:10;18.10;99.90
11242;DHT22;5678;52.370;9.006;2023-05-10T10:01:39;18.30;99.90
11242;DHT22;5678;52.370;9.006;2023-05-10T10:04:09;18.40;99.90
11242;DHT22;5678;52.370;9.006;2023-05-10T10:06:38;18.50;1.00
11242;DHT22;5678;52.370;9.006;2023-05-10T10:09:08;19.00;1.00
11242;DHT22;5678;52.370;9.006;2023-05-10T10:11:37;19.30;1.00
11242;DHT22;5678;52.370;9.006;2023-05-10T10:14:06;19.40;99.90
11242;DHT22;5678;52.370;9.006;2023-05-10T10:16:34;19.30;1.00
11242;DHT22;5678;52.370;9.006;2023-05-10T10:19:07;19.20;1.00
11242;DHT22;5678;52.370;9.006;2023-05-10T10:21:35;19.30;1.00
11242;DHT22;5678;52.370;9.006;2023-05-10T10:24:03;19.30;1.00
11242;DHT22;5678;52.370;9.006;2023-05-10T10:26:35;19.60;1.00
11242;DHT22;5678;52.370;9.006;2023-05-10T10:29:13;19.80;1.00
11242;DHT22;5678;52.370;9.006;2023-05-10T10:31:47;19.90;99.90
11242;DHT22;5678;52.370;9.006;2023-05-10T10:34:25;20.00;99.90
11242;DHT22;5678;52.370;9.006;2023-05-10T10:36:54;20.10;99.90
11242;DHT22;5678;52.370;9.006;2023-05-10T10:39:23;20.40;99.90
11242;DHT22;5678;52.370;9.006;2023-05-10T10:41:55;20.60;1.00
11242;DHT22;5678;52.370;9.006;2023-05-10T10:47:23;21.20;18.10
11242;DHT22;5678;52.370;9.006;2023-05-10T10:50:04;21.40;1.00
11242;DHT22;5678;52.370;9.006;2023-05-10T10:52:33;21.60;1.00
11242;DHT22;5678;52.370;9.006;2023-05-10T10:55:03;21.60;99.90
11242;DHT22;5678;52.370;9.006;2023-05-10T10:57:42;21.70;99.90
11242;DHT22;5678;52.370;9.006;2023-05-10T11:00:21;21.80;18.10
11242;DHT22;5678;52.370;9.006;2023-05-10T11:02:51;21.80;99.90
11242;DHT22;5678;52.370;9.006;2023-05-10T11:05:41;21.80;99.90
11242;DHT22;5678;52.370;9.006;2023-05-10T11:08:14;21.90;99.90
11242;DHT22;5678;52.370;9.006;2023-05-10T11:10:53;21.80;99.90
11242;DHT22;5678;52.370;9.006;2023-05-10T11:13:30;21.50;1.00
11242;DHT22;5678;52.370;9.006;2023-05-10T11:15:58;21.10;1.00
11242;DHT22;5678;52.370;9.006;2023-05-10T11:18:28;20.90;2.10
11242;DHT22;5678;52.370;9.006;2023-05-10T11:20:57;20.80;99.90
11242;DHT22;5678;52.370;9.006;2023-05-10T11:23:30;20.90;99.90
11242;DHT22;5678;52.370;9.006;2023-05-10T11:25:59;21.20;1.00
11242;DHT22;5678;52.370;9.006;2023-05-10T11:28:29;21.70;99.90
11242;DHT22;5678;52.370;9.006;2023-05-10T11:30:57;22.00;93.70
11242;DHT22;5678;52.370;9.006;2023-05-10T11:33:25;22.20;1.00
11242;DHT22;5678;52.370;9.006;2023-05-10T11:35:53;22.20;1.00
11242;DHT22;5678;52.370;9.006;2023-05-10T11:38:21;22.30;1.00
11242;DHT22;5678;52.370;9.006;2023-05-10T11:40:51;21.80;1.00
11242;DHT22;5678;52.370;9.006;2023-05-10T11:43:23;21.70;1.00
11242;DHT22;5678;52.370;9.006;2023-05-10T11:45:56;21.70;1.00
11242;DHT22;5678;52.370;9.006;2023-05-10T11:48:24;21.30;1.00
11242;DHT22;5678;52.370;9.006;2023-05-10T11:50:52;21.20;1.00
11242;DHT22;5678;52.370;9.006;2023-05-10T11:53:25;21.30;1.00
11242;DHT22;5678;52.370;9.006;2023-05-10T11:55:53;21.70;1.00
11242;DHT22;5678;52.370;9.006;2023-05-10T11:58:21;21.90;1.00
11242;DHT22;5678;52.370;9.006;2023-05-10T12:00:50;22.20;1.00
11242;DHT22;5678;52.370;9.006;2023-05-10T12:03:19;22.20;1.00
11242;DHT22;5678;52.370;9.006;2023-05-10T12:05:47;22.10;1.00
11242;DHT22;5678;52.370;9.006;2023-05-10T12:08:19;22.00;1.00
11242;DHT22;5678;52.370;9.006;2023-05-10T12:10:47;21.90;1.00
11242;DHT22;5678;52.370;9.006;2023-05-10T12:13:16;21.70;1.00
11242;DHT22;5678;52.370;9.006;2023-05-10T12:15:45;21.50;1.00
11242;DHT22;5678;52.370;9.006;2023-05-10T12:18:13;21.60;1.00
11242;DHT22;5678;52.370;9.006;2023-05-10T12:20:43;21.70;1.00
11242;DHT22;5678;52.370;9.006;2023-05-10T12:23:13;21.80;1.00
11242;DHT22;5678;52.370;9.006;2023-05-10T12:25:41;21.70;1.00
11242;DHT22;5678;52.370;9.006;2023-05-10T12:28:09;21.70;1.00
11242;DHT22;5678;52.370;9.006;2023-05-10T12:30:38;21.50;1.00
11242;DHT22;5678;52.370;9.006;2023-05-10T12:33:11;21.30;1.00
11242;DHT22;5678;52.370;9.006;2023-05-10T12:35:48;21.10;1.00
11242;DHT22;5678;52.370;9.006;2023-05-10T12:38:25;21.10;1.00
11242;DHT22;5678;52.370;9.006;2023-05-10T12:40:55;20.90;1.00
11242;DHT22;5678;52.370;9.006;2023-05-10T12:43:23;21.00;1.00
11242;DHT22;5678;52.370;9.006;2023-05-10T12:45:51;20.80;1.00
11242;DHT22;5678;52.370;9.006;2023-05-10T12:48:19;20.90;1.00
11242;DHT22;5678;52.370;9.006;2023-05-10T12:50:48;21.20;1.00
11242;DHT22;5678;52.370;9.006;2023-05-10T12:53:17;21.30;1.00
11242;DHT22;5678;52.370;9.006;2023-05-10T12:55:44;21.60;1.00
11242;DHT22;5678;52.370;9.006;2023-05-10T12:58:12;21.70;1.00
11242;DHT22;5678;52.370;9.006;2023-05-10T13:01:00;21.80;1.00
11242;DHT22;5678;52.370;9.006;2023-05-10T13:03:28;21.90;1.00
11242;DHT22;5678;52.370;9.006;2023-05-10T13:05:58;21.90;1.00
11242;DHT22;5678;52.370;9.006;2023-05-10T13:08:26;21.90;1.00
11242;DHT22;5678;52.370;9.006;2023-05-10T13:10:56;21.80;1.00
11242;DHT22;5678;52.370;9.006;2023-05-10T13:13:24;21.40;1.00
11242;DHT22;5678;52.370;9.006;2023-05-10T13:15:52;21.10;1.00
11242;DHT22;5678;52.370;9.006;2023-05-10T13:18:20;20.80;1.00
11242;DHT22;5678;52.370;9.006;2023-05-10T13:20:48;20.80;1.00
11242;DHT22;5678;52.370;9.006;2023-05-10T13:23:18;20.80;1.00
11242;DHT22;5678;52.370;9.006;2023-05-10T13:25:46;20.80;1.00
11242;DHT22;5678;52.370;9.006;2023-05-10T13:28:14;20.70;1.00
11242;DHT22;5678;52.370;9.006;2023-05-10T13:30:42;21.00;1.00
11242;DHT22;5678;52.370;9.006;2023-05-10T13:33:10;21.10;1.00
11242;DHT22;5678;52.370;9.006;2023-05-10T13:35:38;21.00;1.00
11242;DHT22;5678;52.370;9.006;2023-05-10T13:38:06;20.90;1.00
11242;DHT22;5678;52.370;9.006;2023-05-10T13:40:36;20.70;1.00
11242;DHT22;5678;52.370;9.006;2023-05-10T13:43:03;20.00;1.00
11242;DHT22;5678;52.370;9.006;2023-05-10T13:45:31;20.20;1.00
11242;DHT22;5678;52.370;9.006;2023-05-10T13:47:59;20.20;1.00
11242;DHT22;5678;52.370;9.006;2023-05-10T13:50:27;20.20;1.00
11242;DHT22;5678;52.370;9.006;2023-05-10T13:52:55;20.20;1.00
11242;DHT22;5678;52.370;9.006;2023-05-10T13:55:23;20.50;1.00
11242;DHT22;5678;52.370;9.006;2023-05-10T13:57:52;20.40;1.00
11242;DHT22;5678;52.370;9.006;2023-05-10T14:00:20;20.50;99.90
11242;DHT22;5678;52.370;9.006;2023-05-10T14:02:48;20.60;1.00
11242;DHT22;5678;52.370;9.006;2023-05-10T14:05:17;20.80;1.00
11242;DHT22;5678;52.370;9.006;2023-05-10T14:07:51;20.80;1.00
11242;DHT22;5678;52.370;9.006;2023-05-10T14:10:19;20.60;1.00
11242;DHT22;5678;52.370;9.006;2023-05-10T14:12:47;20.40;1.00
11242;DHT22;5678;52.370;9.006;2023-05-10T14:15:16;20.30;25.60
11242;DHT22;5678;52.370;9.006;2023-05-10T14:17:44;20.50;1.00
11242;DHT22;5678;52.370;9.006;2023-05-10T14:20:12;20.70;1.00
11242;DHT22;5678;52.370;9.006;2023-05-10T14:22:40;20.60;1.00
11242;DHT22;5678;52.370;9.006;2023-05-10T14:25:09;20.70;1.00
11242;DHT22;5678;52.370;9.006;2023-05-10T14:27:37;20.60;1.00
11242;DHT22;5678;52.370;9.006;2023-05-10T14:30:06;20.50;1.00
11242;DHT22;5678;52.370;9.006;2023-05-10T14:32:35;20.50;1.00
11242;DHT22;5678;52.370;9.006;2023-05-10T14:35:05;20.40;1.00
11242;DHT22;5678;52.370;9.006;2023-05-10T14:37:36;20.10;1.00
11242;DHT22;5678;52.370;9.006;2023-05-10T14:40:05;20.00;1.00
11242;DHT22;5678;52.370;9.006;2023-05-10T14:42:33;19.90;1.00
11242;DHT22;5678;52.370;9.006;2023-05-10T14:45:01;19.80;1.00
11242;DHT22;5678;52.370;9.006;2023-05-10T14:47:29;19.70;1.00
11242;DHT22;5678;52.370;9.006;2023-05-10T14:49:59;19.70;1.00
11242;DHT22;5678;52.370;9.006;2023-05-10T14:52:27;19.70;1.00
11242;DHT22;5678;52.370;9.006;2023-05-10T14:54:55;19.90;1.00
11242;DHT22;5678;52.370;9.006;2023-05-10T14:57:23;19.90;1.00
11242;DHT22;5678;52.370;9.006;2023-05-10T14:59:51;20.20;1.00
11242;DHT22;5678;52.370;9.006;2023-05-10T15:02:19;20.10;1.00
11242;DHT22;5678;52.370;9.006;2023-05-10T15:04:48;20.10;1.00
11242;DHT22;5678;52.370;9.006;2023-05-10T15:07:18;20.00;1.00
11242;DHT22;5678;52.370;9.006;2023-05-10T15:09:48;19.90;1.00
11242;DHT22;5678;52.370;9.006;2023-05-10T15:12:16;19.80;1.00
11242;DHT22;5678;52.370;9.006;2023-05-10T15:14:44;19.70;1.00
11242;DHT22;5678;52.370;9.006;2023-05-10T15:17:12;19.50;1.00
11242;DHT22;5678;52.370;9.006;2023-05-10T15:19:40;19.40;1.00
11242;DHT22;5678;52.370;9.006;2023-05-10T15:22:08;19.30;1.00
11242;DHT22;5678;52.370;9.006;2023-05-10T15:24:37;19.10;1.00
11242;DHT22;5678;52.370;9.006;2023-05-10T15:27:05;19.10;1.00
11242;DHT22;5678;52.370;9.006;2023-05-10T15:29:33;19.00;1.00
11242;DHT22;5678;52.370;9.006;2023-05-10T15:32:02;19.00;1.00
11242;DHT22;5678;52.370;9.006;2023-05-10T15:34:30;18.90;1.00
11242;DHT22;5678;52.370;9.006;2023-05-10T15:37:01;19.00;1.00
11242;DHT22;5678;52.370;9.006;2023-05-10T15:39:29;19.10;1.00
11242;DHT22;5678;52.370;9.006;2023-05-10T15:41:58;19.20;1.00
11242;DHT22;5678;52.370;9.006;2023-05-10T15:44:27;19.30;1.00
11242;DHT22;5678;52.370;9.006;2023-05-10T15:46:55;19.40;1.00
11242;DHT22;5678;52.370;9.006;2023-05-10T15:49:23;19.40;1.00
11242;DHT22;5678;52.370;9.006;2023-05-10T15:51:52;19.40;1.00
11242;DHT22;5678;52.370;9.006;2023-05-10T15:54:20;19.40;1.00
11242;DHT22;5678;52.370;9.006;2023-05-10T15:56:48;19.50;1.00
11242;DHT22;5678;52.370;9.006;2023-05-10T15:59:17;19.60;1.00
11242;DHT22;5678;52.370;9.006;2023-05-10T16:01:45;19.70;1.00
11242;DHT22;5678;52.370;9.006;2023-05-10T16:04:13;19.70;1.00
11242;DHT22;5678;52.370;9.006;2023-05-10T16:06:40;19.70;1.00
11242;DHT22;5678;52.370;9.006;2023-05-10T16:09:08;19.80;1.00
11242;DHT22;5678;52.370;9.006;2023-05-10T16:11:37;20.00;1.00
11242;DHT22;5678;52.370;9.006;2023-05-10T16:14:05;20.00;1.00